In Rescue
 
Open Full Screen Window  High Contrast Mode
Wind Gusting 16 knots
12
July 13, 2020 11:01 PM CDT
Weather Information
Wind Direction
  160 °
Wind Speed
  12 kt (14 mph)
Wind Gust
  16 kt (18 mph)
Altimeter
29.76 in
Visibility
10 SM
Temperature
21° C
70° F
Dewpoint
14° C
57° F
Humidity
64%
1hr Rain Fall
00.00 in.
24hr Rain Fall
00.00 in.
Sky Condition
Clear
VFR

METAR KELO 140401Z AUTO 16012G16KT 10SM CLR 21/14 A2976 RMK AO2 LTG DSNT SW AND NW

FAA Disclaimer: The data displayed is for advisory purposes only and is not to be used for flight planning or operations.